sensor_id;sensor_type;location;lat;lon;timestamp;P1;durP1;ratioP1;P2;durP2;ratioP2
25503;SDS011;13410;52.114;5.718;2023-02-26T00:01:25;14.23;;;3.88;;
25503;SDS011;13410;52.114;5.718;2023-02-26T00:03:55;11.20;;;4.50;;
25503;SDS011;13410;52.114;5.718;2023-02-26T00:06:22;11.55;;;4.60;;
25503;SDS011;13410;52.114;5.718;2023-02-26T00:08:48;9.18;;;3.75;;
25503;SDS011;13410;52.114;5.718;2023-02-26T00:11:13;8.88;;;3.70;;
25503;SDS011;13410;52.114;5.718;2023-02-26T00:13:40;15.88;;;3.65;;
25503;SDS011;13410;52.114;5.718;2023-02-26T00:18:51;12.60;;;4.15;;
25503;SDS011;13410;52.114;5.718;2023-02-26T00:21:20;12.82;;;4.35;;
25503;SDS011;13410;52.114;5.718;2023-02-26T00:23:47;11.23;;;3.92;;
25503;SDS011;13410;52.114;5.718;2023-02-26T00:26:12;10.10;;;4.03;;
25503;SDS011;13410;52.114;5.718;2023-02-26T00:28:38;9.45;;;3.70;;
25503;SDS011;13410;52.114;5.718;2023-02-26T00:31:05;10.50;;;3.22;;
25503;SDS011;13410;52.114;5.718;2023-02-26T00:33:31;8.15;;;3.20;;
25503;SDS011;13410;52.114;5.718;2023-02-26T00:38:46;9.50;;;3.17;;
25503;SDS011;13410;52.114;5.718;2023-02-26T00:41:28;7.88;;;2.70;;
25503;SDS011;13410;52.114;5.718;2023-02-26T00:43:54;8.90;;;2.83;;
25503;SDS011;13410;52.114;5.718;2023-02-26T00:46:21;7.07;;;2.80;;
25503;SDS011;13410;52.114;5.718;2023-02-26T00:51:52;10.93;;;2.97;;
25503;SDS011;13410;52.114;5.718;2023-02-26T00:54:25;9.30;;;2.60;;
25503;SDS011;13410;52.114;5.718;2023-02-26T00:56:54;10.65;;;2.55;;
25503;SDS011;13410;52.114;5.718;2023-02-26T00:59:22;8.98;;;2.65;;
25503;SDS011;13410;52.114;5.718;2023-02-26T01:01:48;12.00;;;2.60;;
25503;SDS011;13410;52.114;5.718;2023-02-26T01:04:15;9.57;;;2.92;;
25503;SDS011;13410;52.114;5.718;2023-02-26T01:06:44;6.43;;;2.42;;
25503;SDS011;13410;52.114;5.718;2023-02-26T01:11:55;10.93;;;2.67;;
25503;SDS011;13410;52.114;5.718;2023-02-26T01:14:26;10.07;;;2.65;;
25503;SDS011;13410;52.114;5.718;2023-02-26T01:19:35;7.35;;;3.20;;
25503;SDS011;13410;52.114;5.718;2023-02-26T01:25:03;8.60;;;2.90;;
25503;SDS011;13410;52.114;5.718;2023-02-26T01:27:29;9.07;;;3.00;;
25503;SDS011;13410;52.114;5.718;2023-02-26T01:29:55;7.15;;;2.72;;
25503;SDS011;13410;52.114;5.718;2023-02-26T01:32:25;7.75;;;2.88;;
25503;SDS011;13410;52.114;5.718;2023-02-26T01:35:22;10.00;;;2.80;;
25503;SDS011;13410;52.114;5.718;2023-02-26T01:43:22;6.97;;;2.40;;
25503;SDS011;13410;52.114;5.718;2023-02-26T01:46:21;6.85;;;2.33;;
25503;SDS011;13410;52.114;5.718;2023-02-26T01:48:53;7.60;;;2.38;;
25503;SDS011;13410;52.114;5.718;2023-02-26T01:51:41;8.75;;;2.15;;
25503;SDS011;13410;52.114;5.718;2023-02-26T01:54:07;9.23;;;2.50;;
25503;SDS011;13410;52.114;5.718;2023-02-26T01:56:34;7.82;;;2.28;;
25503;SDS011;13410;52.114;5.718;2023-02-26T01:59:02;6.03;;;2.25;;
25503;SDS011;13410;52.114;5.718;2023-02-26T02:01:31;9.82;;;2.20;;
25503;SDS011;13410;52.114;5.718;2023-02-26T02:03:57;9.10;;;2.20;;
25503;SDS011;13410;52.114;5.718;2023-02-26T02:06:24;5.93;;;2.03;;
25503;SDS011;13410;52.114;5.718;2023-02-26T02:08:52;8.32;;;2.10;;
25503;SDS011;13410;52.114;5.718;2023-02-26T02:11:18;5.15;;;1.73;;
25503;SDS011;13410;52.114;5.718;2023-02-26T02:16:34;5.75;;;1.65;;
25503;SDS011;13410;52.114;5.718;2023-02-26T02:27:57;6.75;;;1.95;;
25503;SDS011;13410;52.114;5.718;2023-02-26T02:33:03;4.95;;;2.45;;
25503;SDS011;13410;52.114;5.718;2023-02-26T02:36:12;6.43;;;1.48;;
25503;SDS011;13410;52.114;5.718;2023-02-26T02:38:44;7.43;;;1.40;;
25503;SDS011;13410;52.114;5.718;2023-02-26T02:41:29;6.43;;;1.63;;
25503;SDS011;13410;52.114;5.718;2023-02-26T02:44:00;8.02;;;1.45;;
25503;SDS011;13410;52.114;5.718;2023-02-26T02:46:29;7.47;;;1.50;;
25503;SDS011;13410;52.114;5.718;2023-02-26T02:49:01;6.85;;;1.35;;
25503;SDS011;13410;52.114;5.718;2023-02-26T02:51:43;4.07;;;1.48;;
25503;SDS011;13410;52.114;5.718;2023-02-26T02:54:20;8.05;;;1.50;;
25503;SDS011;13410;52.114;5.718;2023-02-26T02:57:14;5.28;;;1.20;;
25503;SDS011;13410;52.114;5.718;2023-02-26T02:59:47;6.00;;;1.52;;
25503;SDS011;13410;52.114;5.718;2023-02-26T03:05:27;4.15;;;1.50;;
25503;SDS011;13410;52.114;5.718;2023-02-26T03:07:58;8.00;;;1.52;;
25503;SDS011;13410;52.114;5.718;2023-02-26T03:10:30;4.05;;;1.05;;
25503;SDS011;13410;52.114;5.718;2023-02-26T03:12:56;7.90;;;1.45;;
25503;SDS011;13410;52.114;5.718;2023-02-26T03:15:30;8.82;;;1.50;;
25503;SDS011;13410;52.114;5.718;2023-02-26T03:20:55;4.80;;;1.33;;
25503;SDS011;13410;52.114;5.718;2023-02-26T03:23:35;7.30;;;1.45;;
25503;SDS011;13410;52.114;5.718;2023-02-26T03:29:05;7.50;;;1.30;;
25503;SDS011;13410;52.114;5.718;2023-02-26T03:31:51;7.05;;;1.30;;
25503;SDS011;13410;52.114;5.718;2023-02-26T03:34:29;8.27;;;1.15;;
25503;SDS011;13410;52.114;5.718;2023-02-26T03:37:16;5.32;;;1.17;;
25503;SDS011;13410;52.114;5.718;2023-02-26T03:40:04;4.85;;;1.30;;
25503;SDS011;13410;52.114;5.718;2023-02-26T03:42:43;6.40;;;1.13;;
25503;SDS011;13410;52.114;5.718;2023-02-26T03:45:36;7.22;;;1.33;;
25503;SDS011;13410;52.114;5.718;2023-02-26T03:48:03;6.70;;;1.08;;
25503;SDS011;13410;52.114;5.718;2023-02-26T03:50:34;8.70;;;1.10;;
25503;SDS011;13410;52.114;5.718;2023-02-26T03:53:11;7.38;;;1.27;;
25503;SDS011;13410;52.114;5.718;2023-02-26T03:55:54;7.30;;;1.10;;
25503;SDS011;13410;52.114;5.718;2023-02-26T03:58:34;6.45;;;1.40;;
25503;SDS011;13410;52.114;5.718;2023-02-26T04:01:04;5.35;;;1.33;;
25503;SDS011;13410;52.114;5.718;2023-02-26T04:03:34;3.45;;;1.02;;
25503;SDS011;13410;52.114;5.718;2023-02-26T04:06:13;5.38;;;1.27;;
25503;SDS011;13410;52.114;5.718;2023-02-26T04:08:40;6.70;;;1.40;;
25503;SDS011;13410;52.114;5.718;2023-02-26T04:13:35;6.90;;;1.42;;
25503;SDS011;13410;52.114;5.718;2023-02-26T04:16:00;4.28;;;1.10;;
25503;SDS011;13410;52.114;5.718;2023-02-26T04:18:26;5.97;;;1.50;;
25503;SDS011;13410;52.114;5.718;2023-02-26T04:20:52;7.80;;;1.30;;
25503;SDS011;13410;52.114;5.718;2023-02-26T04:23:18;9.18;;;1.70;;
25503;SDS011;13410;52.114;5.718;2023-02-26T04:25:44;8.98;;;1.27;;
25503;SDS011;13410;52.114;5.718;2023-02-26T04:28:10;6.00;;;1.30;;
25503;SDS011;13410;52.114;5.718;2023-02-26T04:30:35;6.35;;;1.15;;
25503;SDS011;13410;52.114;5.718;2023-02-26T04:33:01;7.40;;;1.40;;
25503;SDS011;13410;52.114;5.718;2023-02-26T04:35:27;4.40;;;0.90;;
25503;SDS011;13410;52.114;5.718;2023-02-26T04:37:53;3.63;;;1.17;;
25503;SDS011;13410;52.114;5.718;2023-02-26T04:40:18;4.10;;;1.23;;
25503;SDS011;13410;52.114;5.718;2023-02-26T04:42:44;4.88;;;1.23;;
25503;SDS011;13410;52.114;5.718;2023-02-26T04:45:09;5.53;;;1.30;;
25503;SDS011;13410;52.114;5.718;2023-02-26T04:47:35;7.88;;;1.23;;
25503;SDS011;13410;52.114;5.718;2023-02-26T04:50:01;4.90;;;1.13;;
25503;SDS011;13410;52.114;5.718;2023-02-26T04:52:27;8.75;;;1.00;;
25503;SDS011;13410;52.114;5.718;2023-02-26T04:54:53;3.47;;;1.00;;
25503;SDS011;13410;52.114;5.718;2023-02-26T04:57:18;7.38;;;1.30;;
25503;SDS011;13410;52.114;5.718;2023-02-26T04:59:44;6.65;;;1.27;;
25503;SDS011;13410;52.114;5.718;2023-02-26T05:02:09;4.57;;;1.20;;
25503;SDS011;13410;52.114;5.718;2023-02-26T05:04:35;6.72;;;1.25;;
25503;SDS011;13410;52.114;5.718;2023-02-26T05:07:00;3.10;;;1.08;;
25503;SDS011;13410;52.114;5.718;2023-02-26T05:09:26;5.07;;;1.02;;
25503;SDS011;13410;52.114;5.718;2023-02-26T05:11:51;4.53;;;1.13;;
25503;SDS011;13410;52.114;5.718;2023-02-26T05:14:20;5.00;;;1.10;;
25503;SDS011;13410;52.114;5.718;2023-02-26T05:16:45;4.53;;;1.10;;
25503;SDS011;13410;52.114;5.718;2023-02-26T05:19:11;7.28;;;0.90;;
25503;SDS011;13410;52.114;5.718;2023-02-26T05:21:36;7.35;;;0.95;;
25503;SDS011;13410;52.114;5.718;2023-02-26T05:24:03;3.33;;;0.95;;
25503;SDS011;13410;52.114;5.718;2023-02-26T05:26:29;5.10;;;1.08;;
25503;SDS011;13410;52.114;5.718;2023-02-26T05:28:54;3.20;;;1.30;;
25503;SDS011;13410;52.114;5.718;2023-02-26T05:31:21;2.80;;;0.80;;
25503;SDS011;13410;52.114;5.718;2023-02-26T05:33:47;5.82;;;1.00;;
25503;SDS011;13410;52.114;5.718;2023-02-26T05:36:12;6.63;;;1.13;;
25503;SDS011;13410;52.114;5.718;2023-02-26T05:38:40;8.70;;;0.90;;
25503;SDS011;13410;52.114;5.718;2023-02-26T05:41:05;5.75;;;1.45;;
25503;SDS011;13410;52.114;5.718;2023-02-26T05:43:31;4.40;;;0.75;;
25503;SDS011;13410;52.114;5.718;2023-02-26T05:45:57;3.85;;;0.77;;
25503;SDS011;13410;52.114;5.718;2023-02-26T05:48:23;3.67;;;0.90;;
25503;SDS011;13410;52.114;5.718;2023-02-26T05:50:49;3.33;;;0.93;;
25503;SDS011;13410;52.114;5.718;2023-02-26T05:53:14;6.25;;;0.88;;
25503;SDS011;13410;52.114;5.718;2023-02-26T05:55:40;3.78;;;0.75;;
25503;SDS011;13410;52.114;5.718;2023-02-26T05:58:06;4.78;;;0.90;;
25503;SDS011;13410;52.114;5.718;2023-02-26T06:00:31;4.30;;;0.70;;
25503;SDS011;13410;52.114;5.718;2023-02-26T06:02:57;2.45;;;0.70;;
25503;SDS011;13410;52.114;5.718;2023-02-26T06:05:23;7.50;;;0.90;;
25503;SDS011;13410;52.114;5.718;2023-02-26T06:07:49;5.38;;;0.95;;
25503;SDS011;13410;52.114;5.718;2023-02-26T06:10:14;3.92;;;0.75;;
25503;SDS011;13410;52.114;5.718;2023-02-26T06:12:40;4.45;;;1.00;;
25503;SDS011;13410;52.114;5.718;2023-02-26T06:15:06;6.35;;;0.85;;
25503;SDS011;13410;52.114;5.718;2023-02-26T06:17:33;4.20;;;0.80;;
25503;SDS011;13410;52.114;5.718;2023-02-26T06:19:59;6.70;;;0.88;;
25503;SDS011;13410;52.114;5.718;2023-02-26T06:22:24;4.28;;;0.90;;
25503;SDS011;13410;52.114;5.718;2023-02-26T06:24:51;5.20;;;1.02;;
25503;SDS011;13410;52.114;5.718;2023-02-26T06:27:19;2.90;;;0.95;;
25503;SDS011;13410;52.114;5.718;2023-02-26T06:29:44;5.10;;;0.82;;
25503;SDS011;13410;52.114;5.718;2023-02-26T06:32:10;4.72;;;0.90;;
25503;SDS011;13410;52.114;5.718;2023-02-26T06:34:35;4.38;;;0.90;;
25503;SDS011;13410;52.114;5.718;2023-02-26T06:37:01;6.65;;;1.23;;
25503;SDS011;13410;52.114;5.718;2023-02-26T06:39:26;10.65;;;3.88;;
25503;SDS011;13410;52.114;5.718;2023-02-26T06:41:53;13.35;;;6.55;;
25503;SDS011;13410;52.114;5.718;2023-02-26T06:44:19;15.65;;;6.13;;
25503;SDS011;13410;52.114;5.718;2023-02-26T06:46:44;5.65;;;1.60;;
25503;SDS011;13410;52.114;5.718;2023-02-26T06:49:11;5.65;;;1.30;;
25503;SDS011;13410;52.114;5.718;2023-02-26T06:51:36;6.38;;;1.20;;
25503;SDS011;13410;52.114;5.718;2023-02-26T06:54:02;4.55;;;1.20;;
25503;SDS011;13410;52.114;5.718;2023-02-26T06:56:28;7.15;;;1.90;;
25503;SDS011;13410;52.114;5.718;2023-02-26T06:58:53;9.13;;;2.50;;
25503;SDS011;13410;52.114;5.718;2023-02-26T07:01:19;4.30;;;0.82;;
25503;SDS011;13410;52.114;5.718;2023-02-26T07:03:44;4.35;;;0.70;;
25503;SDS011;13410;52.114;5.718;2023-02-26T07:06:10;4.53;;;1.05;;
25503;SDS011;13410;52.114;5.718;2023-02-26T07:08:37;5.90;;;0.80;;
25503;SDS011;13410;52.114;5.718;2023-02-26T07:11:03;6.22;;;0.75;;
25503;SDS011;13410;52.114;5.718;2023-02-26T07:13:29;3.83;;;0.75;;
25503;SDS011;13410;52.114;5.718;2023-02-26T07:15:54;3.40;;;0.80;;
25503;SDS011;13410;52.114;5.718;2023-02-26T07:18:20;7.03;;;0.80;;
25503;SDS011;13410;52.114;5.718;2023-02-26T07:20:48;4.05;;;0.70;;
25503;SDS011;13410;52.114;5.718;2023-02-26T07:23:15;3.63;;;0.70;;
25503;SDS011;13410;52.114;5.718;2023-02-26T07:25:41;3.33;;;0.95;;
25503;SDS011;13410;52.114;5.718;2023-02-26T07:28:06;2.90;;;0.80;;
25503;SDS011;13410;52.114;5.718;2023-02-26T07:30:32;2.38;;;0.85;;
25503;SDS011;13410;52.114;5.718;2023-02-26T07:32:58;4.80;;;1.50;;
25503;SDS011;13410;52.114;5.718;2023-02-26T07:35:24;5.07;;;1.50;;
25503;SDS011;13410;52.114;5.718;2023-02-26T07:37:49;6.38;;;1.05;;
25503;SDS011;13410;52.114;5.718;2023-02-26T07:40:16;7.30;;;1.00;;
25503;SDS011;13410;52.114;5.718;2023-02-26T07:42:42;5.07;;;1.10;;
25503;SDS011;13410;52.114;5.718;2023-02-26T07:45:07;5.07;;;1.70;;
25503;SDS011;13410;52.114;5.718;2023-02-26T07:47:33;10.00;;;2.58;;
25503;SDS011;13410;52.114;5.718;2023-02-26T07:49:59;5.18;;;1.42;;
25503;SDS011;13410;52.114;5.718;2023-02-26T07:52:25;4.90;;;1.00;;
25503;SDS011;13410;52.114;5.718;2023-02-26T07:54:51;3.90;;;1.05;;
25503;SDS011;13410;52.114;5.718;2023-02-26T07:57:17;4.70;;;0.90;;
25503;SDS011;13410;52.114;5.718;2023-02-26T07:59:43;2.75;;;0.70;;
25503;SDS011;13410;52.114;5.718;2023-02-26T08:02:09;2.83;;;0.60;;
25503;SDS011;13410;52.114;5.718;2023-02-26T08:04:36;3.67;;;0.77;;
25503;SDS011;13410;52.114;5.718;2023-02-26T08:07:02;4.20;;;0.70;;
25503;SDS011;13410;52.114;5.718;2023-02-26T08:09:28;5.53;;;0.60;;
25503;SDS011;13410;52.114;5.718;2023-02-26T08:11:54;3.15;;;0.70;;
25503;SDS011;13410;52.114;5.718;2023-02-26T08:14:20;3.38;;;0.75;;
25503;SDS011;13410;52.114;5.718;2023-02-26T08:16:46;2.78;;;0.80;;
25503;SDS011;13410;52.114;5.718;2023-02-26T08:19:12;3.28;;;0.85;;
25503;SDS011;13410;52.114;5.718;2023-02-26T08:21:37;5.20;;;0.80;;
25503;SDS011;13410;52.114;5.718;2023-02-26T08:24:03;3.00;;;0.50;;
25503;SDS011;13410;52.114;5.718;2023-02-26T08:26:29;6.40;;;0.88;;
25503;SDS011;13410;52.114;5.718;2023-02-26T08:28:54;5.82;;;0.98;;
25503;SDS011;13410;52.114;5.718;2023-02-26T08:31:20;3.20;;;0.65;;
25503;SDS011;13410;52.114;5.718;2023-02-26T08:33:45;4.28;;;0.68;;
25503;SDS011;13410;52.114;5.718;2023-02-26T08:36:11;1.17;;;0.30;;
25503;SDS011;13410;52.114;5.718;2023-02-26T08:38:37;4.18;;;0.60;;
25503;SDS011;13410;52.114;5.718;2023-02-26T08:41:03;2.10;;;0.55;;
25503;SDS011;13410;52.114;5.718;2023-02-26T08:43:29;4.07;;;0.70;;
25503;SDS011;13410;52.114;5.718;2023-02-26T08:45:55;2.47;;;0.50;;
25503;SDS011;13410;52.114;5.718;2023-02-26T08:48:21;6.50;;;0.60;;
25503;SDS011;13410;52.114;5.718;2023-02-26T08:50:48;2.95;;;0.40;;
25503;SDS011;13410;52.114;5.718;2023-02-26T08:53:14;2.15;;;0.43;;
25503;SDS011;13410;52.114;5.718;2023-02-26T08:55:40;1.15;;;0.50;;
25503;SDS011;13410;52.114;5.718;2023-02-26T08:58:05;1.75;;;0.57;;
25503;SDS011;13410;52.114;5.718;2023-02-26T09:00:31;1.73;;;0.50;;
25503;SDS011;13410;52.114;5.718;2023-02-26T09:02:57;2.63;;;0.43;;
25503;SDS011;13410;52.114;5.718;2023-02-26T09:05:23;2.50;;;0.77;;
25503;SDS011;13410;52.114;5.718;2023-02-26T09:07:49;2.25;;;0.43;;
25503;SDS011;13410;52.114;5.718;2023-02-26T09:10:14;2.13;;;0.40;;
25503;SDS011;13410;52.114;5.718;2023-02-26T09:12:40;3.38;;;0.70;;
25503;SDS011;13410;52.114;5.718;2023-02-26T09:15:07;5.05;;;0.35;;
25503;SDS011;13410;52.114;5.718;2023-02-26T09:17:34;4.70;;;0.52;;
25503;SDS011;13410;52.114;5.718;2023-02-26T09:20:03;3.58;;;0.70;;
25503;SDS011;13410;52.114;5.718;2023-02-26T09:22:28;1.27;;;0.35;;
25503;SDS011;13410;52.114;5.718;2023-02-26T09:24:54;2.28;;;0.68;;
25503;SDS011;13410;52.114;5.718;2023-02-26T09:27:24;1.17;;;0.20;;
25503;SDS011;13410;52.114;5.718;2023-02-26T09:29:49;1.80;;;0.50;;
25503;SDS011;13410;52.114;5.718;2023-02-26T09:32:15;0.98;;;0.20;;
25503;SDS011;13410;52.114;5.718;2023-02-26T09:34:41;3.38;;;0.40;;
25503;SDS011;13410;52.114;5.718;2023-02-26T09:37:07;1.20;;;0.30;;
25503;SDS011;13410;52.114;5.718;2023-02-26T09:39:34;5.18;;;0.40;;
25503;SDS011;13410;52.114;5.718;2023-02-26T09:42:21;1.27;;;0.30;;
25503;SDS011;13410;52.114;5.718;2023-02-26T09:44:48;2.60;;;0.45;;
25503;SDS011;13410;52.114;5.718;2023-02-26T09:55:18;4.85;;;0.90;;
25503;SDS011;13410;52.114;5.718;2023-02-26T09:58:03;1.45;;;0.25;;
25503;SDS011;13410;52.114;5.718;2023-02-26T10:00:36;6.05;;;0.57;;
25503;SDS011;13410;52.114;5.718;2023-02-26T10:03:16;3.42;;;0.60;;
25503;SDS011;13410;52.114;5.718;2023-02-26T10:06:20;2.65;;;0.40;;
25503;SDS011;13410;52.114;5.718;2023-02-26T10:14:18;3.42;;;0.50;;
25503;SDS011;13410;52.114;5.718;2023-02-26T10:16:51;1.88;;;0.28;;
25503;SDS011;13410;52.114;5.718;2023-02-26T10:19:24;6.75;;;0.60;;
25503;SDS011;13410;52.114;5.718;2023-02-26T10:24:58;2.70;;;0.30;;
25503;SDS011;13410;52.114;5.718;2023-02-26T10:33:02;2.80;;;0.47;;
25503;SDS011;13410;52.114;5.718;2023-02-26T10:35:56;4.00;;;0.85;;
25503;SDS011;13410;52.114;5.718;2023-02-26T10:38:29;1.35;;;0.40;;
25503;SDS011;13410;52.114;5.718;2023-02-26T10:40:59;2.33;;;0.40;;
25503;SDS011;13410;52.114;5.718;2023-02-26T10:46:43;7.35;;;1.65;;
25503;SDS011;13410;52.114;5.718;2023-02-26T10:52:14;2.85;;;0.73;;
25503;SDS011;13410;52.114;5.718;2023-02-26T10:54:47;2.83;;;0.85;;
25503;SDS011;13410;52.114;5.718;2023-02-26T10:57:34;2.33;;;0.70;;
25503;SDS011;13410;52.114;5.718;2023-02-26T11:00:04;1.83;;;1.30;;
25503;SDS011;13410;52.114;5.718;2023-02-26T11:02:35;2.80;;;0.80;;
25503;SDS011;13410;52.114;5.718;2023-02-26T11:05:11;1.50;;;0.43;;
25503;SDS011;13410;52.114;5.718;2023-02-26T11:07:42;3.80;;;0.45;;
25503;SDS011;13410;52.114;5.718;2023-02-26T11:10:15;2.72;;;0.30;;
25503;SDS011;13410;52.114;5.718;2023-02-26T11:12:44;2.35;;;1.05;;
25503;SDS011;13410;52.114;5.718;2023-02-26T11:15:11;2.08;;;0.40;;
25503;SDS011;13410;52.114;5.718;2023-02-26T11:17:38;3.75;;;0.60;;
25503;SDS011;13410;52.114;5.718;2023-02-26T11:20:11;1.98;;;0.50;;
25503;SDS011;13410;52.114;5.718;2023-02-26T11:22:43;0.10;;;0.10;;
25503;SDS011;13410;52.114;5.718;2023-02-26T11:25:13;2.50;;;0.45;;
25503;SDS011;13410;52.114;5.718;2023-02-26T11:27:42;2.63;;;0.73;;
25503;SDS011;13410;52.114;5.718;2023-02-26T11:30:16;0.90;;;0.38;;
25503;SDS011;13410;52.114;5.718;2023-02-26T11:32:50;2.42;;;0.45;;
25503;SDS011;13410;52.114;5.718;2023-02-26T11:35:18;2.88;;;0.47;;
25503;SDS011;13410;52.114;5.718;2023-02-26T11:37:47;0.70;;;0.20;;
25503;SDS011;13410;52.114;5.718;2023-02-26T11:40:17;0.55;;;0.20;;
25503;SDS011;13410;52.114;5.718;2023-02-26T11:42:54;1.38;;;0.40;;
25503;SDS011;13410;52.114;5.718;2023-02-26T11:45:27;2.42;;;0.40;;
25503;SDS011;13410;52.114;5.718;2023-02-26T11:48:00;2.08;;;0.30;;
25503;SDS011;13410;52.114;5.718;2023-02-26T11:50:29;3.83;;;0.40;;
25503;SDS011;13410;52.114;5.718;2023-02-26T11:52:56;2.58;;;0.40;;
25503;SDS011;13410;52.114;5.718;2023-02-26T11:55:35;1.88;;;0.50;;
25503;SDS011;13410;52.114;5.718;2023-02-26T11:58:04;2.47;;;0.68;;
25503;SDS011;13410;52.114;5.718;2023-02-26T12:00:41;2.90;;;0.38;;
25503;SDS011;13410;52.114;5.718;2023-02-26T12:03:09;2.13;;;0.40;;
25503;SDS011;13410;52.114;5.718;2023-02-26T12:05:41;3.10;;;0.50;;
25503;SDS011;13410;52.114;5.718;2023-02-26T12:08:13;1.45;;;0.50;;
25503;SDS011;13410;52.114;5.718;2023-02-26T12:10:54;1.90;;;0.60;;
25503;SDS011;13410;52.114;5.718;2023-02-26T12:16:27;1.58;;;0.40;;
25503;SDS011;13410;52.114;5.718;2023-02-26T12:20:02;3.45;;;0.50;;
25503;SDS011;13410;52.114;5.718;2023-02-26T12:25:27;2.20;;;0.50;;
25503;SDS011;13410;52.114;5.718;2023-02-26T12:28:20;1.50;;;0.38;;
25503;SDS011;13410;52.114;5.718;2023-02-26T12:30:57;2.47;;;0.68;;
25503;SDS011;13410;52.114;5.718;2023-02-26T12:33:58;1.42;;;0.50;;
25503;SDS011;13410;52.114;5.718;2023-02-26T12:36:39;1.88;;;0.45;;
25503;SDS011;13410;52.114;5.718;2023-02-26T12:48:41;1.70;;;0.50;;
25503;SDS011;13410;52.114;5.718;2023-02-26T12:57:50;3.20;;;0.98;;
25503;SDS011;13410;52.114;5.718;2023-02-26T13:01:18;2.38;;;0.50;;
25503;SDS011;13410;52.114;5.718;2023-02-26T13:03:56;2.67;;;0.30;;
25503;SDS011;13410;52.114;5.718;2023-02-26T13:17:25;0.95;;;0.38;;
25503;SDS011;13410;52.114;5.718;2023-02-26T13:19:59;4.28;;;0.47;;
25503;SDS011;13410;52.114;5.718;2023-02-26T13:22:44;1.38;;;0.30;;
25503;SDS011;13410;52.114;5.718;2023-02-26T13:25:17;1.33;;;0.32;;
25503;SDS011;13410;52.114;5.718;2023-02-26T13:27:47;2.08;;;0.50;;
25503;SDS011;13410;52.114;5.718;2023-02-26T13:30:19;1.73;;;0.30;;
25503;SDS011;13410;52.114;5.718;2023-02-26T13:32:46;1.48;;;0.30;;
25503;SDS011;13410;52.114;5.718;2023-02-26T13:35:20;0.77;;;0.30;;
25503;SDS011;13410;52.114;5.718;2023-02-26T13:37:50;2.65;;;0.45;;
25503;SDS011;13410;52.114;5.718;2023-02-26T13:43:15;1.08;;;0.32;;
25503;SDS011;13410;52.114;5.718;2023-02-26T13:56:06;1.15;;;0.40;;
25503;SDS011;13410;52.114;5.718;2023-02-26T13:58:42;2.03;;;0.22;;
25503;SDS011;13410;52.114;5.718;2023-02-26T14:03:50;1.55;;;0.40;;
25503;SDS011;13410;52.114;5.718;2023-02-26T14:06:22;0.80;;;0.22;;
25503;SDS011;13410;52.114;5.718;2023-02-26T14:08:54;1.90;;;0.35;;
25503;SDS011;13410;52.114;5.718;2023-02-26T14:11:41;2.47;;;0.50;;
25503;SDS011;13410;52.114;5.718;2023-02-26T14:16:44;0.52;;;0.35;;
25503;SDS011;13410;52.114;5.718;2023-02-26T14:21:49;3.60;;;0.40;;
25503;SDS011;13410;52.114;5.718;2023-02-26T14:27:21;1.25;;;0.30;;
25503;SDS011;13410;52.114;5.718;2023-02-26T14:35:30;0.90;;;0.30;;
25503;SDS011;13410;52.114;5.718;2023-02-26T14:38:04;1.65;;;0.30;;
25503;SDS011;13410;52.114;5.718;2023-02-26T14:41:05;2.50;;;0.45;;
25503;SDS011;13410;52.114;5.718;2023-02-26T14:43:45;0.70;;;0.30;;
25503;SDS011;13410;52.114;5.718;2023-02-26T14:46:17;1.00;;;0.30;;
25503;SDS011;13410;52.114;5.718;2023-02-26T14:48:43;1.45;;;0.15;;
25503;SDS011;13410;52.114;5.718;2023-02-26T14:59:41;1.52;;;0.50;;
25503;SDS011;13410;52.114;5.718;2023-02-26T15:02:29;0.43;;;0.13;;
25503;SDS011;13410;52.114;5.718;2023-02-26T15:10:20;1.90;;;0.40;;
25503;SDS011;13410;52.114;5.718;2023-02-26T15:13:05;1.25;;;0.50;;
25503;SDS011;13410;52.114;5.718;2023-02-26T15:15:50;1.27;;;0.28;;
25503;SDS011;13410;52.114;5.718;2023-02-26T15:23:51;1.80;;;1.00;;
25503;SDS011;13410;52.114;5.718;2023-02-26T15:26:20;2.50;;;1.40;;
25503;SDS011;13410;52.114;5.718;2023-02-26T15:28:48;8.32;;;5.97;;
25503;SDS011;13410;52.114;5.718;2023-02-26T15:31:17;0.40;;;0.20;;
25503;SDS011;13410;52.114;5.718;2023-02-26T15:33:54;1.98;;;0.63;;
25503;SDS011;13410;52.114;5.718;2023-02-26T15:36:20;1.88;;;0.40;;
25503;SDS011;13410;52.114;5.718;2023-02-26T15:38:49;2.08;;;0.50;;
25503;SDS011;13410;52.114;5.718;2023-02-26T15:41:19;1.90;;;0.80;;
25503;SDS011;13410;52.114;5.718;2023-02-26T15:46:18;0.40;;;0.20;;
25503;SDS011;13410;52.114;5.718;2023-02-26T15:49:01;3.28;;;0.73;;
25503;SDS011;13410;52.114;5.718;2023-02-26T15:51:32;1.42;;;0.40;;
25503;SDS011;13410;52.114;5.718;2023-02-26T15:53:58;3.85;;;0.47;;
25503;SDS011;13410;52.114;5.718;2023-02-26T15:56:28;1.17;;;0.35;;
25503;SDS011;13410;52.114;5.718;2023-02-26T15:59:15;1.80;;;0.90;;
25503;SDS011;13410;52.114;5.718;2023-02-26T16:01:43;1.67;;;0.63;;
25503;SDS011;13410;52.114;5.718;2023-02-26T16:04:16;1.40;;;0.57;;
25503;SDS011;13410;52.114;5.718;2023-02-26T16:06:45;3.97;;;0.70;;
25503;SDS011;13410;52.114;5.718;2023-02-26T16:09:17;2.15;;;0.38;;
25503;SDS011;13410;52.114;5.718;2023-02-26T16:11:45;3.88;;;0.50;;
25503;SDS011;13410;52.114;5.718;2023-02-26T16:14:15;2.50;;;0.73;;
25503;SDS011;13410;52.114;5.718;2023-02-26T16:16:45;1.90;;;0.50;;
25503;SDS011;13410;52.114;5.718;2023-02-26T16:19:14;1.80;;;0.50;;
25503;SDS011;13410;52.114;5.718;2023-02-26T16:22:01;1.55;;;0.50;;
25503;SDS011;13410;52.114;5.718;2023-02-26T16:24:32;1.27;;;0.40;;
25503;SDS011;13410;52.114;5.718;2023-02-26T16:26:59;1.35;;;0.30;;
25503;SDS011;13410;52.114;5.718;2023-02-26T16:29:31;3.50;;;0.57;;
25503;SDS011;13410;52.114;5.718;2023-02-26T16:32:00;2.13;;;0.65;;
25503;SDS011;13410;52.114;5.718;2023-02-26T16:34:35;2.05;;;0.35;;
25503;SDS011;13410;52.114;5.718;2023-02-26T16:39:50;2.25;;;0.40;;
25503;SDS011;13410;52.114;5.718;2023-02-26T16:42:35;3.47;;;0.60;;
25503;SDS011;13410;52.114;5.718;2023-02-26T16:45:16;1.27;;;0.30;;
25503;SDS011;13410;52.114;5.718;2023-02-26T16:47:44;17.85;;;7.32;;
25503;SDS011;13410;52.114;5.718;2023-02-26T16:50:13;1.77;;;0.85;;
25503;SDS011;13410;52.114;5.718;2023-02-26T16:52:42;1.58;;;0.40;;
25503;SDS011;13410;52.114;5.718;2023-02-26T16:55:10;3.95;;;0.88;;
25503;SDS011;13410;52.114;5.718;2023-02-26T16:57:42;4.18;;;0.60;;
25503;SDS011;13410;52.114;5.718;2023-02-26T17:00:16;2.15;;;0.60;;
25503;SDS011;13410;52.114;5.718;2023-02-26T17:02:53;3.75;;;0.57;;
25503;SDS011;13410;52.114;5.718;2023-02-26T17:05:22;2.30;;;1.05;;
25503;SDS011;13410;52.114;5.718;2023-02-26T17:08:12;4.40;;;0.82;;
25503;SDS011;13410;52.114;5.718;2023-02-26T17:10:48;4.50;;;0.68;;
25503;SDS011;13410;52.114;5.718;2023-02-26T17:13:18;6.43;;;0.90;;
25503;SDS011;13410;52.114;5.718;2023-02-26T17:16:05;4.80;;;0.80;;
25503;SDS011;13410;52.114;5.718;2023-02-26T17:18:32;4.85;;;1.27;;
25503;SDS011;13410;52.114;5.718;2023-02-26T17:20:58;7.60;;;1.10;;
25503;SDS011;13410;52.114;5.718;2023-02-26T17:23:30;6.70;;;1.30;;
25503;SDS011;13410;52.114;5.718;2023-02-26T17:25:58;3.70;;;0.93;;
25503;SDS011;13410;52.114;5.718;2023-02-26T17:28:27;6.40;;;0.70;;
25503;SDS011;13410;52.114;5.718;2023-02-26T17:30:55;3.17;;;0.63;;
25503;SDS011;13410;52.114;5.718;2023-02-26T17:33:21;6.55;;;0.73;;
25503;SDS011;13410;52.114;5.718;2023-02-26T17:35:47;4.45;;;1.08;;
25503;SDS011;13410;52.114;5.718;2023-02-26T17:38:14;5.10;;;1.10;;
25503;SDS011;13410;52.114;5.718;2023-02-26T17:40:41;4.50;;;1.10;;
25503;SDS011;13410;52.114;5.718;2023-02-26T17:43:09;3.08;;;0.77;;
25503;SDS011;13410;52.114;5.718;2023-02-26T17:45:35;4.72;;;0.80;;
25503;SDS011;13410;52.114;5.718;2023-02-26T17:48:02;6.30;;;0.90;;
25503;SDS011;13410;52.114;5.718;2023-02-26T17:50:31;3.40;;;1.00;;
25503;SDS011;13410;52.114;5.718;2023-02-26T17:53:12;4.55;;;1.15;;